Time;durP1;ratioP1;P1;durP2;ratioP2;P2;SDS_P1;SDS_P2;PMS_P1;PMS_P2;Temp;Humidity;BMP_temperature;BMP_pressure;BME280_temperature;BME280_humidity;BME280_pressure;Samples;Min_cycle;Max_cycle;Signal;HPM_P1;HPM_P2
2023/06/13 00:00:13;;;;;;;;;;;;;;;20.75;53.37;100269.47;5088547;28;1122;-20
2023/06/13 00:02:39;;;;;;;;;;;;;;;22.54;50.59;100273.81;5090740;28;1230;-20
2023/06/13 00:05:08;;;;;;;;;;;;;;;21.31;51.51;100261.28;5087836;28;1985;-21
2023/06/13 00:07:37;;;;;;;;;;;;;;;22.61;50.22;100261.47;5075923;28;1150;-20
2023/06/13 00:10:04;;;;;;;;;;;;;;;21.11;51.85;100253.44;5076054;28;991;-20
2023/06/13 00:12:32;;;;;;;;;;;;;;;22.79;50.56;100252.44;5088527;28;1098;-21
2023/06/13 00:15:01;;;;;;;;;;;;;;;20.90;53.17;100253.75;5076008;28;1015;-21
2023/06/13 00:17:28;;;;;;;;;;;;;;;22.41;51.38;100251.00;5076101;28;1153;-21
2023/06/13 00:19:55;;;;;;;;;;;;;;;21.27;51.84;100254.59;5078910;28;1162;-21
2023/06/13 00:22:21;;;;;;;;;;;;;;;21.87;53.91;100261.00;5086208;28;1073;-21
2023/06/13 00:24:46;;;;;;;;;;;;;;;22.27;47.34;100263.19;5089058;28;1910;-20
2023/06/13 00:27:12;;;;;;;;;;;;;;;21.97;53.64;100263.56;5097449;28;1117;-21
2023/06/13 00:29:37;;;;;;;;;;;;;;;22.53;46.51;100267.63;5089813;28;1053;-21
2023/06/13 00:32:03;;;;;;;;;;;;;;;21.48;55.00;100267.63;5095887;28;1054;-21
2023/06/13 00:34:29;;;;;;;;;;;;;;;24.11;46.08;100265.88;5089619;28;1065;-21
2023/06/13 00:36:55;;;;;;;;;;;;;;;21.41;54.74;100264.72;5083235;28;1189;-20
2023/06/13 00:39:21;;;;;;;;;;;;;;;23.95;44.09;100268.44;5089564;28;1139;-21
2023/06/13 00:41:47;;;;;;;;;;;;;;;21.63;54.01;100273.22;5096443;28;1137;-21
2023/06/13 00:44:12;;;;;;;;;;;;;;;23.52;42.98;100267.88;5092212;28;1977;-21
2023/06/13 00:46:39;;;;;;;;;;;;;;;21.79;53.48;100270.84;5082643;28;1090;-20
2023/06/13 00:49:05;;;;;;;;;;;;;;;22.84;44.78;100263.50;5061388;28;1115;-21
2023/06/13 00:51:31;;;;;;;;;;;;;;;21.08;56.15;100264.47;5061660;28;1139;-21
2023/06/13 00:53:57;;;;;;;;;;;;;;;23.86;46.76;100266.78;5078922;28;1142;-21
2023/06/13 00:56:28;;;;;;;;;;;;;;;21.33;54.77;100267.34;5064683;28;1275;-22
2023/06/13 00:58:58;;;;;;;;;;;;;;;23.23;43.29;100270.06;5081390;28;1083;-21
2023/06/13 01:01:24;;;;;;;;;;;;;;;21.71;53.19;100269.75;5094007;28;1170;-21
2023/06/13 01:03:50;;;;;;;;;;;;;;;22.68;44.46;100267.00;5077865;28;1910;-21
2023/06/13 01:06:16;;;;;;;;;;;;;;;21.59;53.17;100271.84;5060529;28;1117;-20
2023/06/13 01:08:42;;;;;;;;;;;;;;;24.06;44.72;100271.75;5071315;28;1129;-21
2023/06/13 01:11:12;;;;;;;;;;;;;;;20.84;51.79;100265.88;5073958;28;1034;-21
2023/06/13 01:13:43;;;;;;;;;;;;;;;22.32;49.99;100270.75;5069966;28;1036;-21
2023/06/13 01:16:11;;;;;;;;;;;;;;;20.62;52.24;100281.34;5065821;28;1074;-21
2023/06/13 01:18:38;;;;;;;;;;;;;;;22.53;48.99;100277.50;5064314;28;1253;-21
2023/06/13 01:21:04;;;;;;;;;;;;;;;20.61;52.93;100279.69;5065264;28;1514;-21
2023/06/13 01:23:57;;;;;;;;;;;;;;;22.74;48.97;100275.22;5064222;28;1971;-21
2023/06/13 01:26:42;;;;;;;;;;;;;;;20.38;55.50;100273.91;5027818;28;1425;-21
2023/06/13 01:29:07;;;;;;;;;;;;;;;23.33;46.99;100276.09;5064805;28;1289;-20
2023/06/13 01:31:33;;;;;;;;;;;;;;;20.42;56.44;100273.47;5063908;28;1625;-21
2023/06/13 01:33:59;;;;;;;;;;;;;;;23.21;47.17;100274.75;5071843;28;1125;-22
2023/06/13 01:36:24;;;;;;;;;;;;;;;24.09;45.35;100272.25;5057761;28;1178;-21
2023/06/13 01:38:50;;;;;;;;;;;;;;;20.91;55.57;100290.19;5071016;28;1244;-20
2023/06/13 01:41:15;;;;;;;;;;;;;;;23.63;46.63;100280.94;5070452;28;1075;-20
2023/06/13 01:43:41;;;;;;;;;;;;;;;21.20;54.53;100286.47;5059571;28;1975;-20
2023/06/13 01:46:08;;;;;;;;;;;;;;;23.95;44.97;100278.34;5058847;28;940;-20
2023/06/13 01:48:33;;;;;;;;;;;;;;;24.91;42.30;100281.94;5058899;28;1050;-20
2023/06/13 01:51:14;;;;;;;;;;;;;;;25.42;41.26;100291.28;5058547;28;1058;-21
2023/06/13 01:53:40;;;;;;;;;;;;;;;25.70;40.44;100296.09;5058443;28;1035;-21
2023/06/13 01:56:11;;;;;;;;;;;;;;;25.73;40.41;100305.66;5069931;28;1059;-20
2023/06/13 01:58:52;;;;;;;;;;;;;;;25.65;40.42;100303.88;5066559;28;1303;-19
2023/06/13 02:01:19;;;;;;;;;;;;;;;25.74;39.61;100307.34;5057024;28;1310;-20
2023/06/13 02:03:45;;;;;;;;;;;;;;;25.89;39.78;100310.84;5071304;28;1905;-19
2023/06/13 02:06:10;;;;;;;;;;;;;;;26.05;38.80;100300.94;5080434;28;1170;-19
2023/06/13 02:08:35;;;;;;;;;;;;;;;26.02;39.52;100318.31;5069840;28;1146;-20
2023/06/13 02:11:01;;;;;;;;;;;;;;;26.15;38.99;100316.81;5073474;28;1106;-19
2023/06/13 02:13:30;;;;;;;;;;;;;;;26.06;39.08;100307.97;5071734;28;1102;-20
2023/06/13 02:15:56;;;;;;;;;;;;;;;26.34;37.44;100311.91;5076604;28;1098;-20
2023/06/13 02:18:21;;;;;;;;;;;;;;;26.37;37.63;100308.81;5077861;28;1110;-20
2023/06/13 02:20:47;;;;;;;;;;;;;;;26.39;38.10;100304.91;5081648;28;1111;-19
2023/06/13 02:23:12;;;;;;;;;;;;;;;26.38;36.84;100316.72;5087268;28;1906;-19
2023/06/13 02:25:38;;;;;;;;;;;;;;;26.28;36.92;100313.44;5077722;28;1141;-19
2023/06/13 02:28:03;;;;;;;;;;;;;;;26.39;37.64;100321.06;5077939;28;1166;-19
2023/06/13 02:30:29;;;;;;;;;;;;;;;26.56;36.92;100320.88;5091606;28;1142;-20
2023/06/13 02:32:54;;;;;;;;;;;;;;;26.54;36.56;100331.03;5087858;28;1046;-20
2023/06/13 02:35:23;;;;;;;;;;;;;;;26.47;36.38;100332.78;5080183;28;1085;-19
2023/06/13 02:37:50;;;;;;;;;;;;;;;26.32;36.32;100330.94;5088984;28;1189;-20
2023/06/13 02:40:16;;;;;;;;;;;;;;;26.58;36.50;100331.47;5061092;28;1105;-21
2023/06/13 02:42:41;;;;;;;;;;;;;;;26.55;35.87;100340.78;5088484;28;1122;-23
2023/06/13 02:45:08;;;;;;;;;;;;;;;26.69;35.83;100335.53;5063529;28;1910;-22
2023/06/13 02:47:33;;;;;;;;;;;;;;;26.69;35.34;100336.38;5086281;28;1097;-21
2023/06/13 02:49:59;;;;;;;;;;;;;;;26.77;35.32;100338.13;5079478;28;1198;-21
2023/06/13 02:52:24;;;;;;;;;;;;;;;26.81;35.38;100341.28;5086295;28;1123;-22
2023/06/13 02:54:50;;;;;;;;;;;;;;;26.79;35.16;100338.78;5076906;28;1146;-21
2023/06/13 02:57:16;;;;;;;;;;;;;;;26.88;35.25;100355.66;5097390;28;1146;-20
2023/06/13 02:59:42;;;;;;;;;;;;;;;26.88;35.35;100339.47;5096999;28;1081;-22
2023/06/13 03:02:07;;;;;;;;;;;;;;;26.99;36.03;100349.75;5078901;28;1078;-21
2023/06/13 03:04:33;;;;;;;;;;;;;;;26.97;36.42;100346.44;5074659;28;1966;-21
2023/06/13 03:07:00;;;;;;;;;;;;;;;27.04;36.47;100362.75;5059265;28;1295;-21
2023/06/13 03:09:25;;;;;;;;;;;;;;;27.06;36.18;100354.44;5076306;28;1102;-22
2023/06/13 03:11:52;;;;;;;;;;;;;;;27.02;36.76;100359.38;5078564;28;1431;-22
2023/06/13 03:14:19;;;;;;;;;;;;;;;27.02;36.89;100373.72;5062391;28;1253;-22
2023/06/13 03:16:45;;;;;;;;;;;;;;;27.06;36.96;100360.66;5085226;28;1097;-21
2023/06/13 03:19:11;;;;;;;;;;;;;;;27.01;36.88;100363.06;5059248;28;1197;-21
2023/06/13 03:21:37;;;;;;;;;;;;;;;27.11;36.78;100360.09;5063234;28;1175;-21
2023/06/13 03:24:03;;;;;;;;;;;;;;;27.04;36.89;100368.13;5073510;28;1910;-21
2023/06/13 03:26:37;;;;;;;;;;;;;;;27.14;36.54;100370.50;5058768;28;1225;-22
2023/06/13 03:29:05;;;;;;;;;;;;;;;27.14;36.58;100370.50;5058638;28;1315;-21
2023/06/13 03:31:31;;;;;;;;;;;;;;;27.07;37.11;100373.16;5075525;28;1250;-21
2023/06/13 03:33:58;;;;;;;;;;;;;;;27.18;36.85;100374.47;5071676;28;1120;-22
2023/06/13 03:36:24;;;;;;;;;;;;;;;26.98;36.96;100358.06;5058603;28;1192;-25
2023/06/13 03:38:52;;;;;;;;;;;;;;;25.62;36.21;100358.09;5078483;28;1269;-25
2023/06/13 03:41:18;;;;;;;;;;;;;;;25.47;36.78;100363.44;5065013;28;1194;-24
2023/06/13 03:43:44;;;;;;;;;;;;;;;25.16;36.80;100368.72;5071913;28;1910;-24
2023/06/13 03:46:10;;;;;;;;;;;;;;;24.41;37.88;100368.25;5071417;28;1248;-25
2023/06/13 03:48:36;;;;;;;;;;;;;;;23.83;38.59;100364.69;5064463;28;1136;-23
2023/06/13 03:51:01;;;;;;;;;;;;;;;23.69;38.92;100362.69;5078664;28;1102;-23
2023/06/13 03:53:27;;;;;;;;;;;;;;;23.92;38.94;100365.47;5076217;28;1134;-23
2023/06/13 03:55:52;;;;;;;;;;;;;;;24.51;37.57;100366.19;5071430;28;1112;-24
2023/06/13 03:58:20;;;;;;;;;;;;;;;25.42;36.25;100362.13;5059318;28;1324;-18
2023/06/13 04:00:46;;;;;;;;;;;;;;;25.50;35.43;100363.91;5089795;28;1134;-18
2023/06/13 04:03:13;;;;;;;;;;;;;;;25.59;33.92;100358.47;5074927;28;1902;-19
2023/06/13 04:05:40;;;;;;;;;;;;;;;25.61;33.79;100364.50;5070341;28;1071;-19
2023/06/13 04:08:06;;;;;;;;;;;;;;;25.73;34.01;100364.91;5079016;28;1133;-19
2023/06/13 04:10:31;;;;;;;;;;;;;;;26.29;34.12;100366.38;5093663;28;1166;-20
2023/06/13 04:12:58;;;;;;;;;;;;;;;26.51;34.33;100364.59;5078069;28;1264;-22
2023/06/13 04:15:24;;;;;;;;;;;;;;;26.68;34.24;100369.78;5091421;28;1027;-19
2023/06/13 04:17:52;;;;;;;;;;;;;;;26.83;34.08;100372.44;5069560;28;1179;-22
2023/06/13 04:20:20;;;;;;;;;;;;;;;27.21;34.36;100365.19;5064364;28;1154;-22
2023/06/13 04:22:47;;;;;;;;;;;;;;;27.38;33.82;100369.28;5095784;28;1054;-20
2023/06/13 04:25:12;;;;;;;;;;;;;;;27.62;33.38;100372.59;5077166;28;1913;-20
2023/06/13 04:27:38;;;;;;;;;;;;;;;27.41;34.74;100364.53;5096138;28;1094;-21
2023/06/13 04:30:05;;;;;;;;;;;;;;;27.37;34.33;100372.19;5072756;28;1127;-19
2023/06/13 04:32:33;;;;;;;;;;;;;;;27.37;34.55;100374.88;5059951;28;1117;-19
2023/06/13 04:34:58;;;;;;;;;;;;;;;27.51;34.21;100373.94;5081533;28;1178;-21
2023/06/13 04:37:25;;;;;;;;;;;;;;;27.57;34.53;100377.75;5088411;28;1209;-20
2023/06/13 04:39:51;;;;;;;;;;;;;;;27.55;34.15;100379.81;5089304;28;1011;-20
2023/06/13 04:42:24;;;;;;;;;;;;;;;27.56;34.01;100378.75;5057899;28;1267;-20
2023/06/13 04:44:52;;;;;;;;;;;;;;;27.58;34.47;100383.97;5078004;28;1909;-20
2023/06/13 04:47:18;;;;;;;;;;;;;;;27.76;33.42;100383.53;5092139;28;935;-22
2023/06/13 04:49:45;;;;;;;;;;;;;;;27.95;33.26;100378.47;5095772;28;1198;-20
2023/06/13 04:52:14;;;;;;;;;;;;;;;27.88;34.06;100383.81;5078725;28;1006;-20
2023/06/13 04:54:40;;;;;;;;;;;;;;;27.68;33.58;100389.03;5088631;28;1175;-20
2023/06/13 04:57:05;;;;;;;;;;;;;;;27.81;33.17;100391.88;5086143;28;1202;-20
2023/06/13 04:59:31;;;;;;;;;;;;;;;27.66;33.49;100391.13;5082452;28;1087;-20
2023/06/13 05:01:56;;;;;;;;;;;;;;;28.04;33.17;100392.66;5077295;28;1012;-20
2023/06/13 05:04:22;;;;;;;;;;;;;;;28.09;33.86;100395.63;5091514;28;1914;-19
2023/06/13 05:06:47;;;;;;;;;;;;;;;28.14;33.67;100397.72;5087027;28;1047;-20
2023/06/13 05:09:14;;;;;;;;;;;;;;;28.22;33.87;100390.28;5081733;28;1122;-20
2023/06/13 05:11:40;;;;;;;;;;;;;;;28.31;34.01;100384.72;5079276;28;852;-21
2023/06/13 05:14:06;;;;;;;;;;;;;;;28.41;33.67;100384.38;5092549;28;1132;-20
2023/06/13 05:16:31;;;;;;;;;;;;;;;28.32;34.56;100391.78;5090054;28;1143;-20
2023/06/13 05:18:57;;;;;;;;;;;;;;;28.55;33.61;100393.38;5098887;28;1030;-22
2023/06/13 05:21:23;;;;;;;;;;;;;;;28.47;34.32;100400.66;5098807;28;1073;-21
2023/06/13 05:23:48;;;;;;;;;;;;;;;28.43;34.00;100402.06;5085170;28;1909;-22
2023/06/13 05:26:14;;;;;;;;;;;;;;;28.40;34.08;100391.66;5088184;28;1229;-21
2023/06/13 05:28:39;;;;;;;;;;;;;;;28.03;33.77;100402.63;5082807;28;1138;-21
2023/06/13 05:31:06;;;;;;;;;;;;;;;27.85;33.67;100397.72;5087353;28;976;-21
2023/06/13 05:33:33;;;;;;;;;;;;;;;28.03;33.38;100401.81;5097280;28;1018;-21
2023/06/13 05:35:58;;;;;;;;;;;;;;;28.13;33.79;100402.28;5088593;28;911;-21
2023/06/13 05:38:24;;;;;;;;;;;;;;;28.04;33.56;100409.75;5084551;28;1127;-21
2023/06/13 05:40:50;;;;;;;;;;;;;;;28.14;33.67;100411.25;5089701;28;1220;-21
2023/06/13 05:43:19;;;;;;;;;;;;;;;28.14;33.56;100400.44;5078226;28;1910;-22
2023/06/13 05:45:45;;;;;;;;;;;;;;;28.00;33.95;100405.75;5088620;28;1123;-21
2023/06/13 05:48:11;;;;;;;;;;;;;;;27.99;33.96;100407.59;5097361;28;1175;-21
2023/06/13 05:50:36;;;;;;;;;;;;;;;28.01;34.01;100406.59;5098668;28;1094;-21
2023/06/13 05:53:02;;;;;;;;;;;;;;;28.03;33.89;100412.63;5081637;28;1073;-21
2023/06/13 05:55:27;;;;;;;;;;;;;;;28.16;33.55;100414.59;5078021;28;1016;-21
2023/06/13 05:57:53;;;;;;;;;;;;;;;28.08;33.81;100415.56;5088968;28;1215;-21
2023/06/13 06:00:19;;;;;;;;;;;;;;;27.84;34.38;100410.41;5078009;28;944;-22
2023/06/13 06:02:46;;;;;;;;;;;;;;;28.16;34.74;100412.69;5083839;28;1130;-21
2023/06/13 06:05:11;;;;;;;;;;;;;;;28.26;34.28;100415.03;5084883;28;1906;-22
2023/06/13 06:07:38;;;;;;;;;;;;;;;28.17;34.13;100414.38;5086183;28;1134;-21
2023/06/13 06:10:03;;;;;;;;;;;;;;;28.26;33.81;100416.94;5082528;28;1123;-23
2023/06/13 06:12:29;;;;;;;;;;;;;;;28.05;33.97;100414.09;5084734;28;941;-22
2023/06/13 06:14:54;;;;;;;;;;;;;;;28.03;34.44;100410.75;5077537;28;1158;-21
2023/06/13 06:17:20;;;;;;;;;;;;;;;28.15;34.05;100413.75;5084342;28;1513;-22
2023/06/13 06:19:47;;;;;;;;;;;;;;;28.07;33.96;100406.63;5098452;28;1090;-23
2023/06/13 06:22:12;;;;;;;;;;;;;;;28.16;33.34;100410.00;5096661;28;1118;-23
2023/06/13 06:24:38;;;;;;;;;;;;;;;28.08;33.71;100402.03;5097033;28;1902;-21
2023/06/13 06:27:03;;;;;;;;;;;;;;;28.00;34.22;100400.34;5084553;28;1087;-23
2023/06/13 06:29:31;;;;;;;;;;;;;;;27.84;34.32;100406.88;5097057;28;1105;-22
2023/06/13 06:31:56;;;;;;;;;;;;;;;27.87;34.53;100401.94;5086602;28;1173;-21
2023/06/13 06:34:22;;;;;;;;;;;;;;;27.92;34.13;100398.63;5077298;28;1430;-22
2023/06/13 06:36:47;;;;;;;;;;;;;;;27.93;34.07;100407.56;5078280;28;912;-22
2023/06/13 06:39:13;;;;;;;;;;;;;;;27.96;34.00;100410.69;5086346;28;1060;-22
2023/06/13 06:41:38;;;;;;;;;;;;;;;27.95;34.09;100411.75;5084218;28;1501;-21
2023/06/13 06:44:04;;;;;;;;;;;;;;;28.14;34.33;100412.09;5084745;28;1974;-21
2023/06/13 06:46:30;;;;;;;;;;;;;;;28.07;34.17;100400.38;5079015;28;1205;-22
2023/06/13 06:48:55;;;;;;;;;;;;;;;28.05;33.58;100402.44;5083598;28;1508;-22
2023/06/13 06:51:21;;;;;;;;;;;;;;;28.08;33.64;100402.03;5097377;28;1113;-22
2023/06/13 06:53:46;;;;;;;;;;;;;;;28.23;33.43;100393.81;5084747;28;1079;-22
2023/06/13 06:56:11;;;;;;;;;;;;;;;28.21;33.70;100401.31;5083558;28;1069;-22
2023/06/13 06:58:37;;;;;;;;;;;;;;;28.15;33.71;100389.41;5087653;28;1158;-21
2023/06/13 07:01:02;;;;;;;;;;;;;;;28.28;33.38;100393.25;5096125;28;1026;-21
2023/06/13 07:03:28;;;;;;;;;;;;;;;28.15;34.22;100394.81;5087667;28;1911;-22
2023/06/13 07:05:53;;;;;;;;;;;;;;;28.06;34.12;100387.91;5091862;28;1455;-21
2023/06/13 07:08:19;;;;;;;;;;;;;;;28.07;33.94;100392.28;5085224;28;1092;-22
2023/06/13 07:10:44;;;;;;;;;;;;;;;28.07;34.36;100395.81;5076494;28;1050;-22
2023/06/13 07:13:10;;;;;;;;;;;;;;;28.11;33.85;100396.25;5080264;28;960;-22
2023/06/13 07:15:35;;;;;;;;;;;;;;;28.09;34.24;100388.31;5076122;28;1202;-22
2023/06/13 07:18:01;;;;;;;;;;;;;;;28.41;33.96;100387.91;5088301;28;1194;-21
2023/06/13 07:20:27;;;;;;;;;;;;;;;28.21;33.77;100369.66;5095194;28;1042;-23
2023/06/13 07:22:52;;;;;;;;;;;;;;;28.24;34.06;100374.69;5087176;28;1186;-21
2023/06/13 07:25:18;;;;;;;;;;;;;;;28.26;34.36;100379.88;5082653;28;1914;-21
2023/06/13 07:27:43;;;;;;;;;;;;;;;28.06;34.61;100375.19;5087961;28;1114;-22
2023/06/13 07:30:09;;;;;;;;;;;;;;;28.15;34.62;100375.03;5089553;28;1038;-21
2023/06/13 07:32:34;;;;;;;;;;;;;;;28.20;34.41;100383.41;5083846;28;1055;-21
2023/06/13 07:35:01;;;;;;;;;;;;;;;28.31;34.19;100373.91;5094889;28;1073;-22
2023/06/13 07:37:26;;;;;;;;;;;;;;;28.18;34.78;100374.63;5094473;28;952;-21
2023/06/13 07:39:52;;;;;;;;;;;;;;;28.27;34.40;100373.47;5082602;28;1174;-21
2023/06/13 07:42:17;;;;;;;;;;;;;;;28.42;34.45;100375.22;5081972;28;1254;-22
2023/06/13 07:44:42;;;;;;;;;;;;;;;28.21;34.44;100372.38;5067390;28;1986;-22
2023/06/13 07:47:08;;;;;;;;;;;;;;;27.92;35.41;100371.59;5074755;28;1127;-21
2023/06/13 07:49:34;;;;;;;;;;;;;;;28.26;33.64;100371.78;5086536;28;1033;-21
2023/06/13 07:51:59;;;;;;;;;;;;;;;28.30;33.79;100372.22;5091071;28;1103;-21
2023/06/13 07:54:25;;;;;;;;;;;;;;;28.33;34.13;100371.84;5086509;28;1249;-22
2023/06/13 07:56:52;;;;;;;;;;;;;;;28.21;34.42;100376.97;5075531;28;1117;-22
2023/06/13 07:59:17;;;;;;;;;;;;;;;28.26;34.38;100377.19;5075703;28;995;-23
2023/06/13 08:01:43;;;;;;;;;;;;;;;28.29;34.09;100376.81;5082627;28;1124;-22
2023/06/13 08:04:08;;;;;;;;;;;;;;;28.32;34.08;100373.69;5077005;28;1906;-23
2023/06/13 08:06:33;;;;;;;;;;;;;;;28.31;34.38;100372.00;5058368;28;1119;-22
2023/06/13 08:08:59;;;;;;;;;;;;;;;28.39;34.11;100368.34;5085030;28;1182;-22
2023/06/13 08:11:25;;;;;;;;;;;;;;;28.31;34.21;100361.19;5080057;28;1153;-22
2023/06/13 08:13:50;;;;;;;;;;;;;;;28.57;34.27;100370.50;5087112;28;1130;-22
2023/06/13 08:16:16;;;;;;;;;;;;;;;28.60;33.35;100356.56;5077807;28;1129;-21
2023/06/13 08:18:41;;;;;;;;;;;;;;;28.33;33.36;100355.59;5088443;28;1150;-21
2023/06/13 08:21:07;;;;;;;;;;;;;;;28.27;33.24;100357.22;5095368;28;1062;-22
2023/06/13 08:23:32;;;;;;;;;;;;;;;28.18;33.19;100351.16;5081246;28;1905;-24
2023/06/13 08:25:58;;;;;;;;;;;;;;;28.07;33.46;100346.31;5089694;28;1038;-23
2023/06/13 08:28:23;;;;;;;;;;;;;;;28.27;32.95;100345.56;5079339;28;1119;-22
2023/06/13 08:30:49;;;;;;;;;;;;;;;28.14;33.79;100343.63;5089495;28;1051;-24
2023/06/13 08:33:14;;;;;;;;;;;;;;;28.26;33.22;100343.91;5078419;28;1083;-22
2023/06/13 08:35:40;;;;;;;;;;;;;;;28.30;33.26;100340.59;5064926;28;1156;-23
2023/06/13 08:38:07;;;;;;;;;;;;;;;28.24;34.53;100333.28;5080812;28;1567;-25
2023/06/13 08:40:32;;;;;;;;;;;;;;;28.23;33.95;100327.03;5087599;28;1209;-23
2023/06/13 08:43:00;;;;;;;;;;;;;;;28.48;32.76;100336.53;5087435;28;1046;-22
2023/06/13 08:45:25;;;;;;;;;;;;;;;28.13;33.79;100336.56;5088713;28;1900;-23
2023/06/13 08:47:51;;;;;;;;;;;;;;;28.37;33.18;100332.53;5077337;28;1026;-22
2023/06/13 08:50:18;;;;;;;;;;;;;;;28.18;33.50;100328.66;5072923;28;1110;-23
2023/06/13 08:52:45;;;;;;;;;;;;;;;28.32;33.54;100340.41;5084787;28;1099;-22
2023/06/13 08:55:17;;;;;;;;;;;;;;;28.19;33.97;100341.16;5099276;28;1082;-23
2023/06/13 08:57:45;;;;;;;;;;;;;;;28.00;33.91;100338.16;5064936;28;1080;-22
2023/06/13 09:00:12;;;;;;;;;;;;;;;27.94;34.40;100334.41;5066748;28;1121;-23
2023/06/13 09:02:38;;;;;;;;;;;;;;;28.31;33.51;100330.63;5080567;28;1079;-22
2023/06/13 09:05:04;;;;;;;;;;;;;;;28.22;33.59;100330.78;5099183;28;1898;-22
2023/06/13 09:07:30;;;;;;;;;;;;;;;28.35;32.53;100331.91;5098263;28;1075;-22
2023/06/13 09:09:57;;;;;;;;;;;;;;;28.35;32.95;100331.91;5075172;28;1088;-22
2023/06/13 09:12:22;;;;;;;;;;;;;;;28.35;33.38;100323.78;5073876;28;1158;-23
2023/06/13 09:14:48;;;;;;;;;;;;;;;28.39;33.60;100316.94;5067713;28;1138;-23
2023/06/13 09:17:13;;;;;;;;;;;;;;;28.42;32.86;100321.94;5091631;28;1357;-22
2023/06/13 09:19:38;;;;;;;;;;;;;;;28.35;33.39;100321.09;5083907;28;1225;-22
2023/06/13 09:22:04;;;;;;;;;;;;;;;28.21;33.35;100315.59;5099219;28;1019;-22
2023/06/13 09:24:30;;;;;;;;;;;;;;;28.25;33.07;100318.72;5086051;28;1972;-22
2023/06/13 09:26:56;;;;;;;;;;;;;;;28.28;33.16;100312.91;5095521;28;1129;-22
2023/06/13 09:29:30;;;;;;;;;;;;;;;28.21;33.29;100317.47;5098479;28;1189;-23
2023/06/13 09:31:58;;;;;;;;;;;;;;;28.17;33.85;100319.75;5086603;28;983;-22
2023/06/13 09:34:25;;;;;;;;;;;;;;;28.38;33.42;100317.97;5085382;28;1087;-23
2023/06/13 09:36:51;;;;;;;;;;;;;;;28.32;33.31;100314.19;5084889;28;1142;-22
2023/06/13 09:39:16;;;;;;;;;;;;;;;28.48;33.21;100304.91;5084131;28;1134;-23
2023/06/13 09:41:41;;;;;;;;;;;;;;;28.49;32.71;100308.44;5080646;28;1129;-23
2023/06/13 09:44:07;;;;;;;;;;;;;;;28.30;33.68;100313.56;5067534;28;1909;-22
2023/06/13 09:46:33;;;;;;;;;;;;;;;28.27;33.04;100308.53;5091891;28;1104;-22
2023/06/13 09:48:58;;;;;;;;;;;;;;;28.13;34.04;100304.13;5089183;28;1194;-22
2023/06/13 09:51:25;;;;;;;;;;;;;;;28.16;33.85;100301.81;5093437;28;1097;-22
2023/06/13 09:53:51;;;;;;;;;;;;;;;28.34;33.55;100297.78;5086971;28;1224;-22
2023/06/13 09:56:16;;;;;;;;;;;;;;;28.26;32.65;100301.44;5080596;28;1123;-22
2023/06/13 09:58:42;;;;;;;;;;;;;;;28.31;37.58;100298.97;5080498;28;1145;-22
2023/06/13 10:01:15;;;;;;;;;;;;;;;27.27;38.04;100294.19;5085686;28;1190;-22
2023/06/13 10:03:41;;;;;;;;;;;;;;;27.55;37.09;100301.47;5084990;28;1910;-22
2023/06/13 10:06:06;;;;;;;;;;;;;;;27.95;36.74;100297.38;5084242;28;1190;-22
2023/06/13 10:08:34;;;;;;;;;;;;;;;27.77;35.25;100296.03;5097139;28;1086;-22
2023/06/13 10:11:00;;;;;;;;;;;;;;;27.18;34.64;100298.03;5079322;28;1051;-22
2023/06/13 10:13:26;;;;;;;;;;;;;;;27.80;33.28;100292.91;5073617;28;895;-21
2023/06/13 10:15:51;;;;;;;;;;;;;;;27.68;33.55;100280.94;5079425;28;1055;-22
2023/06/13 10:18:19;;;;;;;;;;;;;;;27.86;33.45;100278.59;5098217;28;1054;-23
2023/06/13 10:20:45;;;;;;;;;;;;;;;28.23;32.75;100289.19;5066629;28;1147;-22
2023/06/13 10:23:11;;;;;;;;;;;;;;;28.38;32.30;100290.09;5089138;28;1098;-24
2023/06/13 10:25:36;;;;;;;;;;;;;;;28.22;32.60;100292.94;5077320;28;1906;-22
2023/06/13 10:28:14;;;;;;;;;;;;;;;28.28;31.88;100285.06;5073112;28;1131;-22
2023/06/13 10:31:03;;;;;;;;;;;;;;;27.88;32.87;100286.50;5070280;28;1107;-22
2023/06/13 10:33:38;;;;;;;;;;;;;;;28.13;32.52;100282.50;5068957;28;1402;-22
2023/06/13 10:36:07;;;;;;;;;;;;;;;28.09;32.50;100280.16;5069490;28;1048;-22
2023/06/13 10:38:45;;;;;;;;;;;;;;;28.32;32.20;100270.06;5097337;28;894;-22
2023/06/13 10:41:10;;;;;;;;;;;;;;;28.51;31.42;100275.78;5097194;28;1054;-22
2023/06/13 10:43:48;;;;;;;;;;;;;;;28.46;31.05;100271.78;5083124;28;1926;-22
2023/06/13 10:46:13;;;;;;;;;;;;;;;28.34;32.20;100268.84;5097630;28;1026;-21
2023/06/13 10:48:43;;;;;;;;;;;;;;;28.30;32.18;100269.44;5078844;28;1137;-23
2023/06/13 10:51:11;;;;;;;;;;;;;;;28.55;31.26;100268.91;5086550;28;1142;-22
2023/06/13 10:53:37;;;;;;;;;;;;;;;28.48;31.67;100275.16;5076372;28;1143;-23
2023/06/13 10:56:03;;;;;;;;;;;;;;;28.24;32.12;100261.09;5097416;28;1070;-22
2023/06/13 10:58:29;;;;;;;;;;;;;;;28.50;31.49;100266.81;5092375;28;1073;-20
2023/06/13 11:00:55;;;;;;;;;;;;;;;28.94;30.69;100253.78;5088372;28;1123;-21
2023/06/13 11:03:20;;;;;;;;;;;;;;;28.63;31.45;100262.50;5081636;28;1914;-20
2023/06/13 11:05:45;;;;;;;;;;;;;;;29.01;31.55;100256.50;5077245;28;1336;-20
2023/06/13 11:08:14;;;;;;;;;;;;;;;29.39;30.76;100256.91;5093119;28;1105;-20
2023/06/13 11:10:41;;;;;;;;;;;;;;;29.48;31.14;100254.81;5087982;28;1090;-21
2023/06/13 11:13:15;;;;;;;;;;;;;;;29.30;30.76;100264.41;5091958;28;994;-21
2023/06/13 11:15:40;;;;;;;;;;;;;;;29.40;30.63;100250.44;5076198;28;1120;-20
2023/06/13 11:18:09;;;;;;;;;;;;;;;29.19;31.20;100255.91;5086228;28;1123;-23
2023/06/13 11:20:39;;;;;;;;;;;;;;;29.09;32.62;100255.47;5086284;28;1155;-22
2023/06/13 11:23:04;;;;;;;;;;;;;;;29.55;31.64;100247.50;5073384;28;1518;-23
2023/06/13 11:25:30;;;;;;;;;;;;;;;29.30;29.62;100250.88;5076287;28;1910;-21
2023/06/13 11:27:55;;;;;;;;;;;;;;;29.07;32.08;100258.41;5082614;28;1087;-21
2023/06/13 11:30:21;;;;;;;;;;;;;;;28.92;32.58;100253.16;5058323;28;1379;-20
2023/06/13 11:32:46;;;;;;;;;;;;;;;28.93;33.01;100256.66;5083752;28;1410;-20
2023/06/13 11:35:12;;;;;;;;;;;;;;;29.03;33.18;100243.59;5092890;28;1021;-20
2023/06/13 11:37:44;;;;;;;;;;;;;;;28.98;33.26;100248.78;5058355;28;1059;-20
2023/06/13 11:40:11;;;;;;;;;;;;;;;29.36;31.84;100257.34;5083960;28;1347;-20
2023/06/13 11:42:40;;;;;;;;;;;;;;;29.35;31.55;100256.50;5087868;28;1433;-20
2023/06/13 11:45:06;;;;;;;;;;;;;;;29.01;32.38;100247.56;5093606;28;1967;-20
2023/06/13 11:47:32;;;;;;;;;;;;;;;28.74;33.59;100240.22;5081925;28;1747;-21
2023/06/13 11:49:57;;;;;;;;;;;;;;;28.97;32.98;100236.31;5094926;28;1020;-20
2023/06/13 11:52:23;;;;;;;;;;;;;;;28.75;33.75;100233.75;5083539;28;1099;-20
2023/06/13 11:54:50;;;;;;;;;;;;;;;28.64;33.11;100239.78;5081314;28;1066;-21
2023/06/13 11:57:16;;;;;;;;;;;;;;;28.59;33.51;100237.72;5096210;28;1002;-21
2023/06/13 11:59:41;;;;;;;;;;;;;;;28.79;32.36;100239.59;5082264;28;1014;-21
2023/06/13 12:02:07;;;;;;;;;;;;;;;28.55;33.19;100237.28;5095292;28;1106;-20
2023/06/13 12:04:33;;;;;;;;;;;;;;;28.68;31.81;100231.03;5059203;28;1984;-21
2023/06/13 12:06:59;;;;;;;;;;;;;;;28.92;31.32;100231.50;5063001;28;1230;-21
2023/06/13 12:09:25;;;;;;;;;;;;;;;28.67;32.57;100229.41;5072475;28;1144;-20
2023/06/13 12:11:51;;;;;;;;;;;;;;;28.72;32.95;100232.31;5074365;28;1004;-20
2023/06/13 12:14:19;;;;;;;;;;;;;;;28.93;31.98;100226.88;5074806;28;991;-20
2023/06/13 12:16:45;;;;;;;;;;;;;;;29.22;32.81;100238.38;5074966;28;1183;-20
2023/06/13 12:19:11;;;;;;;;;;;;;;;28.83;33.56;100233.56;5073495;28;1026;-21
2023/06/13 12:21:36;;;;;;;;;;;;;;;28.66;33.78;100230.41;5065474;28;1229;-20
2023/06/13 12:24:03;;;;;;;;;;;;;;;28.45;34.85;100229.56;5062843;28;1910;-20
2023/06/13 12:26:30;;;;;;;;;;;;;;;28.43;34.85;100228.09;5071862;28;978;-17
2023/06/13 12:28:56;;;;;;;;;;;;;;;27.24;37.83;100224.38;5062309;28;1147;-22
2023/06/13 12:31:36;;;;;;;;;;;;;;;27.91;36.08;100218.53;5075004;28;1105;-22
2023/06/13 12:34:26;;;;;;;;;;;;;;;27.63;36.78;100222.94;5065478;28;1050;-22
2023/06/13 12:36:54;;;;;;;;;;;;;;;28.01;35.83;100223.56;5058123;28;987;-22
2023/06/13 12:39:21;;;;;;;;;;;;;;;27.62;37.32;100229.41;5061393;28;1105;-22
2023/06/13 12:41:50;;;;;;;;;;;;;;;27.92;37.00;100231.03;5055076;28;1018;-23
2023/06/13 12:44:16;;;;;;;;;;;;;;;28.10;35.99;100224.22;5067374;28;1910;-23